sensor_id;sensor_type;location;lat;lon;timestamp;temperature;humidity
7574;DHT22;3828;48.922;9.116;2024-01-16T00:02:02;0.60;99.90
7574;DHT22;3828;48.922;9.116;2024-01-16T00:09:24;0.60;99.90
7574;DHT22;3828;48.922;9.116;2024-01-16T00:11:51;0.50;99.90
7574;DHT22;3828;48.922;9.116;2024-01-16T00:14:17;0.50;99.90
7574;DHT22;3828;48.922;9.116;2024-01-16T00:16:45;0.50;99.90
7574;DHT22;3828;48.922;9.116;2024-01-16T00:19:14;0.40;99.90
7574;DHT22;3828;48.922;9.116;2024-01-16T00:21:42;0.40;99.90
7574;DHT22;3828;48.922;9.116;2024-01-16T00:24:11;0.40;99.90
7574;DHT22;3828;48.922;9.116;2024-01-16T00:29:05;0.30;99.90
7574;DHT22;3828;48.922;9.116;2024-01-16T00:31:32;0.20;99.90
7574;DHT22;3828;48.922;9.116;2024-01-16T00:34:00;0.20;99.90
7574;DHT22;3828;48.922;9.116;2024-01-16T00:36:28;0.20;99.90
7574;DHT22;3828;48.922;9.116;2024-01-16T00:38:55;0.10;99.90
7574;DHT22;3828;48.922;9.116;2024-01-16T00:41:22;0.10;99.90
7574;DHT22;3828;48.922;9.116;2024-01-16T00:43:49;0.10;99.90
7574;DHT22;3828;48.922;9.116;2024-01-16T00:48:43;0.10;99.90
7574;DHT22;3828;48.922;9.116;2024-01-16T00:51:10;0.10;99.90
7574;DHT22;3828;48.922;9.116;2024-01-16T00:53:41;0.00;99.90
7574;DHT22;3828;48.922;9.116;2024-01-16T01:01:03;0.00;99.90
7574;DHT22;3828;48.922;9.116;2024-01-16T01:03:30;0.00;99.90
7574;DHT22;3828;48.922;9.116;2024-01-16T01:05:57;0.00;99.90
7574;DHT22;3828;48.922;9.116;2024-01-16T01:08:26;0.10;99.90
7574;DHT22;3828;48.922;9.116;2024-01-16T01:10:54;0.10;99.90
7574;DHT22;3828;48.922;9.116;2024-01-16T01:13:21;0.10;99.90
7574;DHT22;3828;48.922;9.116;2024-01-16T01:18:17;0.10;99.90
7574;DHT22;3828;48.922;9.116;2024-01-16T01:23:11;0.10;99.90
7574;DHT22;3828;48.922;9.116;2024-01-16T01:28:07;0.00;99.90
7574;DHT22;3828;48.922;9.116;2024-01-16T01:35:29;0.00;99.90
7574;DHT22;3828;48.922;9.116;2024-01-16T01:37:56;0.00;99.90
7574;DHT22;3828;48.922;9.116;2024-01-16T01:40:23;0.00;99.90
7574;DHT22;3828;48.922;9.116;2024-01-16T01:42:50;0.00;99.90
7574;DHT22;3828;48.922;9.116;2024-01-16T01:45:18;2.40;99.90
7574;DHT22;3828;48.922;9.116;2024-01-16T01:47:45;0.00;99.90
7574;DHT22;3828;48.922;9.116;2024-01-16T01:50:13;0.00;99.90
7574;DHT22;3828;48.922;9.116;2024-01-16T01:55:10;0.00;99.90
7574;DHT22;3828;48.922;9.116;2024-01-16T01:57:38;0.00;99.90
7574;DHT22;3828;48.922;9.116;2024-01-16T02:00:06;0.00;99.90
7574;DHT22;3828;48.922;9.116;2024-01-16T02:02:35;0.00;99.90
7574;DHT22;3828;48.922;9.116;2024-01-16T02:07:31;0.00;99.90
7574;DHT22;3828;48.922;9.116;2024-01-16T02:09:59;0.00;99.90
7574;DHT22;3828;48.922;9.116;2024-01-16T02:12:27;0.00;99.90
7574;DHT22;3828;48.922;9.116;2024-01-16T02:17:22;-0.70;99.90
7574;DHT22;3828;48.922;9.116;2024-01-16T02:19:50;0.00;99.90
7574;DHT22;3828;48.922;9.116;2024-01-16T02:22:20;0.00;99.90
7574;DHT22;3828;48.922;9.116;2024-01-16T02:24:49;0.00;99.90
7574;DHT22;3828;48.922;9.116;2024-01-16T02:29:43;0.00;99.90
7574;DHT22;3828;48.922;9.116;2024-01-16T02:32:12;0.00;99.90
7574;DHT22;3828;48.922;9.116;2024-01-16T02:34:39;-0.10;99.90
7574;DHT22;3828;48.922;9.116;2024-01-16T02:39:33;-0.10;99.90
7574;DHT22;3828;48.922;9.116;2024-01-16T02:42:02;-0.10;99.90
7574;DHT22;3828;48.922;9.116;2024-01-16T02:44:29;-0.10;99.90
7574;DHT22;3828;48.922;9.116;2024-01-16T02:46:56;-0.20;99.90
7574;DHT22;3828;48.922;9.116;2024-01-16T02:49:23;-0.20;99.90
7574;DHT22;3828;48.922;9.116;2024-01-16T02:51:51;-0.20;99.90
7574;DHT22;3828;48.922;9.116;2024-01-16T02:54:19;-0.30;99.90
7574;DHT22;3828;48.922;9.116;2024-01-16T02:56:46;-0.30;99.90
7574;DHT22;3828;48.922;9.116;2024-01-16T02:59:14;-0.30;99.90
7574;DHT22;3828;48.922;9.116;2024-01-16T03:01:41;-0.40;99.90
7574;DHT22;3828;48.922;9.116;2024-01-16T03:04:08;-0.40;99.90
7574;DHT22;3828;48.922;9.116;2024-01-16T03:06:35;-0.40;99.90
7574;DHT22;3828;48.922;9.116;2024-01-16T03:13:57;-0.50;99.90
7574;DHT22;3828;48.922;9.116;2024-01-16T03:16:26;-0.50;99.90
7574;DHT22;3828;48.922;9.116;2024-01-16T03:18:53;-0.50;99.90
7574;DHT22;3828;48.922;9.116;2024-01-16T03:21:20;-0.50;99.90
7574;DHT22;3828;48.922;9.116;2024-01-16T03:23:47;-0.50;99.90
7574;DHT22;3828;48.922;9.116;2024-01-16T03:26:14;-0.50;99.90
7574;DHT22;3828;48.922;9.116;2024-01-16T03:28:41;-0.50;99.90
7574;DHT22;3828;48.922;9.116;2024-01-16T03:31:08;-0.50;99.90
7574;DHT22;3828;48.922;9.116;2024-01-16T03:33:37;-0.50;99.90
7574;DHT22;3828;48.922;9.116;2024-01-16T03:36:08;-0.60;99.90
7574;DHT22;3828;48.922;9.116;2024-01-16T03:38:35;-0.60;99.90
7574;DHT22;3828;48.922;9.116;2024-01-16T03:41:03;-0.50;99.90
7574;DHT22;3828;48.922;9.116;2024-01-16T03:46:01;-0.50;99.90
7574;DHT22;3828;48.922;9.116;2024-01-16T03:48:28;-0.60;99.90
7574;DHT22;3828;48.922;9.116;2024-01-16T03:50:58;-0.60;99.90
7574;DHT22;3828;48.922;9.116;2024-01-16T03:53:25;-0.70;99.90
7574;DHT22;3828;48.922;9.116;2024-01-16T03:58:19;-0.80;99.90
7574;DHT22;3828;48.922;9.116;2024-01-16T04:00:46;-0.80;99.90
7574;DHT22;3828;48.922;9.116;2024-01-16T04:03:13;-0.80;99.90
7574;DHT22;3828;48.922;9.116;2024-01-16T04:05:41;-1.00;99.90
7574;DHT22;3828;48.922;9.116;2024-01-16T04:08:09;-1.00;99.90
7574;DHT22;3828;48.922;9.116;2024-01-16T04:13:05;-1.10;99.90
7574;DHT22;3828;48.922;9.116;2024-01-16T04:15:31;-1.10;99.90
7574;DHT22;3828;48.922;9.116;2024-01-16T04:17:59;-1.20;99.90
7574;DHT22;3828;48.922;9.116;2024-01-16T04:20:26;-1.30;99.90
7574;DHT22;3828;48.922;9.116;2024-01-16T04:22:52;-1.30;99.90
7574;DHT22;3828;48.922;9.116;2024-01-16T04:25:21;-1.40;99.90
7574;DHT22;3828;48.922;9.116;2024-01-16T04:27:47;-1.40;99.90
7574;DHT22;3828;48.922;9.116;2024-01-16T04:32:42;-1.40;99.90
7574;DHT22;3828;48.922;9.116;2024-01-16T04:37:36;-1.50;99.90
7574;DHT22;3828;48.922;9.116;2024-01-16T04:42:32;-1.50;99.90
7574;DHT22;3828;48.922;9.116;2024-01-16T04:44:59;-1.50;99.90
7574;DHT22;3828;48.922;9.116;2024-01-16T04:47:26;-1.50;99.90
7574;DHT22;3828;48.922;9.116;2024-01-16T04:49:52;-1.50;99.90
7574;DHT22;3828;48.922;9.116;2024-01-16T04:54:47;-1.40;99.90
7574;DHT22;3828;48.922;9.116;2024-01-16T04:57:14;-1.40;99.90
7574;DHT22;3828;48.922;9.116;2024-01-16T04:59:42;-1.40;99.90
7574;DHT22;3828;48.922;9.116;2024-01-16T05:02:09;-1.40;99.90
7574;DHT22;3828;48.922;9.116;2024-01-16T05:04:37;-1.50;99.90
7574;DHT22;3828;48.922;9.116;2024-01-16T05:07:04;-1.70;99.90
7574;DHT22;3828;48.922;9.116;2024-01-16T05:09:31;-1.60;99.90
7574;DHT22;3828;48.922;9.116;2024-01-16T05:11:58;-1.70;99.90
7574;DHT22;3828;48.922;9.116;2024-01-16T05:14:25;-1.70;99.90
7574;DHT22;3828;48.922;9.116;2024-01-16T05:16:53;-1.70;99.90
7574;DHT22;3828;48.922;9.116;2024-01-16T05:19:20;-1.60;99.90
7574;DHT22;3828;48.922;9.116;2024-01-16T05:21:47;-1.70;99.90
7574;DHT22;3828;48.922;9.116;2024-01-16T05:26:41;-1.90;99.90
7574;DHT22;3828;48.922;9.116;2024-01-16T05:29:08;-2.00;99.90
7574;DHT22;3828;48.922;9.116;2024-01-16T05:31:39;-2.10;99.90
7574;DHT22;3828;48.922;9.116;2024-01-16T05:34:08;-2.20;99.90
7574;DHT22;3828;48.922;9.116;2024-01-16T05:41:32;-2.00;99.90
7574;DHT22;3828;48.922;9.116;2024-01-16T05:44:00;-1.90;99.90
7574;DHT22;3828;48.922;9.116;2024-01-16T05:46:29;-1.80;99.90
7574;DHT22;3828;48.922;9.116;2024-01-16T05:48:55;-1.80;99.90
7574;DHT22;3828;48.922;9.116;2024-01-16T05:51:24;-1.70;99.90
7574;DHT22;3828;48.922;9.116;2024-01-16T05:53:51;-1.70;99.90
7574;DHT22;3828;48.922;9.116;2024-01-16T05:58:46;-2.00;99.90
7574;DHT22;3828;48.922;9.116;2024-01-16T06:01:13;-2.10;99.90
7574;DHT22;3828;48.922;9.116;2024-01-16T06:03:40;-2.10;99.90
7574;DHT22;3828;48.922;9.116;2024-01-16T06:06:07;-2.10;99.90
7574;DHT22;3828;48.922;9.116;2024-01-16T06:08:35;-2.20;99.90
7574;DHT22;3828;48.922;9.116;2024-01-16T06:11:02;-2.20;99.90
7574;DHT22;3828;48.922;9.116;2024-01-16T06:13:29;-2.20;99.90
7574;DHT22;3828;48.922;9.116;2024-01-16T06:15:57;-2.20;99.90
7574;DHT22;3828;48.922;9.116;2024-01-16T06:23:19;-2.30;99.90
7574;DHT22;3828;48.922;9.116;2024-01-16T06:25:47;-2.30;99.90
7574;DHT22;3828;48.922;9.116;2024-01-16T06:28:14;-2.30;99.90
7574;DHT22;3828;48.922;9.116;2024-01-16T06:30:41;-2.20;99.90
7574;DHT22;3828;48.922;9.116;2024-01-16T06:35:35;-2.20;99.90
7574;DHT22;3828;48.922;9.116;2024-01-16T06:38:02;-2.20;99.90
7574;DHT22;3828;48.922;9.116;2024-01-16T06:40:30;-2.20;99.90
7574;DHT22;3828;48.922;9.116;2024-01-16T06:42:58;-2.10;99.90
7574;DHT22;3828;48.922;9.116;2024-01-16T06:45:25;-2.10;99.90
7574;DHT22;3828;48.922;9.116;2024-01-16T06:55:14;-1.90;99.90
7574;DHT22;3828;48.922;9.116;2024-01-16T07:00:11;-1.80;99.90
7574;DHT22;3828;48.922;9.116;2024-01-16T07:02:40;-1.80;99.90
7574;DHT22;3828;48.922;9.116;2024-01-16T07:05:09;-1.80;99.90
7574;DHT22;3828;48.922;9.116;2024-01-16T07:07:35;-1.70;99.90
7574;DHT22;3828;48.922;9.116;2024-01-16T07:10:03;-1.70;99.90
7574;DHT22;3828;48.922;9.116;2024-01-16T07:15:00;-1.60;99.90
7574;DHT22;3828;48.922;9.116;2024-01-16T07:17:29;-1.60;99.90
7574;DHT22;3828;48.922;9.116;2024-01-16T07:19:56;-1.70;99.90
7574;DHT22;3828;48.922;9.116;2024-01-16T07:24:51;-1.80;99.90
7574;DHT22;3828;48.922;9.116;2024-01-16T07:27:18;-1.80;99.90
7574;DHT22;3828;48.922;9.116;2024-01-16T07:29:45;-1.90;99.90
7574;DHT22;3828;48.922;9.116;2024-01-16T07:32:12;-1.90;99.90
7574;DHT22;3828;48.922;9.116;2024-01-16T07:34:40;-1.90;99.90
7574;DHT22;3828;48.922;9.116;2024-01-16T07:37:07;-2.00;99.90
7574;DHT22;3828;48.922;9.116;2024-01-16T07:39:34;-1.90;99.90
7574;DHT22;3828;48.922;9.116;2024-01-16T07:49:23;-1.80;99.90
7574;DHT22;3828;48.922;9.116;2024-01-16T07:51:51;-1.80;99.90
7574;DHT22;3828;48.922;9.116;2024-01-16T07:54:18;-1.80;99.90
7574;DHT22;3828;48.922;9.116;2024-01-16T07:56:45;-1.80;99.90
7574;DHT22;3828;48.922;9.116;2024-01-16T08:01:40;-1.70;99.90
7574;DHT22;3828;48.922;9.116;2024-01-16T08:04:07;-1.70;99.90
7574;DHT22;3828;48.922;9.116;2024-01-16T08:06:34;-1.80;99.90
7574;DHT22;3828;48.922;9.116;2024-01-16T08:09:02;-1.60;99.90
7574;DHT22;3828;48.922;9.116;2024-01-16T08:13:57;-1.60;99.90
7574;DHT22;3828;48.922;9.116;2024-01-16T08:16:24;-1.60;99.90
7574;DHT22;3828;48.922;9.116;2024-01-16T08:18:51;-1.60;99.90
7574;DHT22;3828;48.922;9.116;2024-01-16T08:21:18;-1.40;99.90
7574;DHT22;3828;48.922;9.116;2024-01-16T08:26:14;-1.40;99.90
7574;DHT22;3828;48.922;9.116;2024-01-16T08:28:41;-1.30;99.90
7574;DHT22;3828;48.922;9.116;2024-01-16T08:31:08;-1.40;99.90
7574;DHT22;3828;48.922;9.116;2024-01-16T08:33:34;-1.40;99.90
7574;DHT22;3828;48.922;9.116;2024-01-16T08:36:02;-1.30;99.90
7574;DHT22;3828;48.922;9.116;2024-01-16T08:38:29;-1.30;99.90
7574;DHT22;3828;48.922;9.116;2024-01-16T08:43:25;-1.10;99.90
7574;DHT22;3828;48.922;9.116;2024-01-16T08:48:19;-1.00;99.90
7574;DHT22;3828;48.922;9.116;2024-01-16T08:50:46;-1.00;99.90
7574;DHT22;3828;48.922;9.116;2024-01-16T08:53:13;-1.00;99.90
7574;DHT22;3828;48.922;9.116;2024-01-16T08:58:07;1.10;99.90
7574;DHT22;3828;48.922;9.116;2024-01-16T09:00:35;-1.00;99.90
7574;DHT22;3828;48.922;9.116;2024-01-16T09:03:04;-0.80;99.90
7574;DHT22;3828;48.922;9.116;2024-01-16T09:05:30;-0.80;99.90
7574;DHT22;3828;48.922;9.116;2024-01-16T09:08:00;-0.70;99.90
7574;DHT22;3828;48.922;9.116;2024-01-16T09:10:28;-0.70;99.90
7574;DHT22;3828;48.922;9.116;2024-01-16T09:15:22;-0.60;99.90
7574;DHT22;3828;48.922;9.116;2024-01-16T09:17:51;-0.60;99.90
7574;DHT22;3828;48.922;9.116;2024-01-16T09:25:13;-0.50;99.90
7574;DHT22;3828;48.922;9.116;2024-01-16T09:30:08;-0.30;99.90
7574;DHT22;3828;48.922;9.116;2024-01-16T09:32:36;-0.10;99.90
7574;DHT22;3828;48.922;9.116;2024-01-16T09:35:05;-0.10;99.90
7574;DHT22;3828;48.922;9.116;2024-01-16T09:37:34;-0.20;99.90
7574;DHT22;3828;48.922;9.116;2024-01-16T09:40:19;-0.10;99.90
7574;DHT22;3828;48.922;9.116;2024-01-16T09:45:45;0.00;99.90
7574;DHT22;3828;48.922;9.116;2024-01-16T09:50:42;0.20;99.90
7574;DHT22;3828;48.922;9.116;2024-01-16T09:55:38;0.50;99.90
7574;DHT22;3828;48.922;9.116;2024-01-16T09:58:05;0.70;99.90
7574;DHT22;3828;48.922;9.116;2024-01-16T10:00:34;0.90;99.90
7574;DHT22;3828;48.922;9.116;2024-01-16T10:03:03;1.10;99.90
7574;DHT22;3828;48.922;9.116;2024-01-16T10:05:30;1.20;99.90
7574;DHT22;3828;48.922;9.116;2024-01-16T10:07:59;1.30;99.90
7574;DHT22;3828;48.922;9.116;2024-01-16T10:10:26;1.40;99.90
7574;DHT22;3828;48.922;9.116;2024-01-16T10:12:55;1.50;99.90
7574;DHT22;3828;48.922;9.116;2024-01-16T10:15:23;1.60;99.90
7574;DHT22;3828;48.922;9.116;2024-01-16T10:20:31;1.70;99.90
7574;DHT22;3828;48.922;9.116;2024-01-16T10:23:00;1.60;99.90
7574;DHT22;3828;48.922;9.116;2024-01-16T10:25:29;1.60;99.90
7574;DHT22;3828;48.922;9.116;2024-01-16T10:28:03;1.60;99.90
7574;DHT22;3828;48.922;9.116;2024-01-16T10:33:13;1.90;99.90
7574;DHT22;3828;48.922;9.116;2024-01-16T10:38:20;2.80;99.90
7574;DHT22;3828;48.922;9.116;2024-01-16T10:40:47;3.30;99.90
7574;DHT22;3828;48.922;9.116;2024-01-16T10:43:17;3.50;99.90
7574;DHT22;3828;48.922;9.116;2024-01-16T10:45:44;3.70;99.90
7574;DHT22;3828;48.922;9.116;2024-01-16T10:55:42;7.80;99.90
7574;DHT22;3828;48.922;9.116;2024-01-16T10:58:13;4.50;99.90
7574;DHT22;3828;48.922;9.116;2024-01-16T11:00:42;5.20;99.90
7574;DHT22;3828;48.922;9.116;2024-01-16T11:03:18;6.00;99.90
7574;DHT22;3828;48.922;9.116;2024-01-16T11:05:47;7.10;99.90
7574;DHT22;3828;48.922;9.116;2024-01-16T11:08:15;7.50;99.90
7574;DHT22;3828;48.922;9.116;2024-01-16T11:10:45;7.50;99.90
7574;DHT22;3828;48.922;9.116;2024-01-16T11:13:13;7.50;99.90
7574;DHT22;3828;48.922;9.116;2024-01-16T11:15:41;8.00;99.90
7574;DHT22;3828;48.922;9.116;2024-01-16T11:18:10;8.60;99.90
7574;DHT22;3828;48.922;9.116;2024-01-16T11:20:39;9.10;99.90
7574;DHT22;3828;48.922;9.116;2024-01-16T11:23:09;9.30;99.90
7574;DHT22;3828;48.922;9.116;2024-01-16T11:25:36;9.30;99.90
7574;DHT22;3828;48.922;9.116;2024-01-16T11:28:10;9.50;99.90
7574;DHT22;3828;48.922;9.116;2024-01-16T11:30:40;9.60;99.90
7574;DHT22;3828;48.922;9.116;2024-01-16T11:33:42;10.00;99.90
7574;DHT22;3828;48.922;9.116;2024-01-16T11:36:42;9.90;99.90
7574;DHT22;3828;48.922;9.116;2024-01-16T11:39:10;10.20;99.90
7574;DHT22;3828;48.922;9.116;2024-01-16T11:41:51;9.80;99.90
7574;DHT22;3828;48.922;9.116;2024-01-16T11:44:42;9.10;99.90
7574;DHT22;3828;48.922;9.116;2024-01-16T11:47:16;8.90;99.90
7574;DHT22;3828;48.922;9.116;2024-01-16T11:49:45;8.70;99.90
7574;DHT22;3828;48.922;9.116;2024-01-16T11:52:12;8.40;99.90
7574;DHT22;3828;48.922;9.116;2024-01-16T11:57:36;6.50;99.90
7574;DHT22;3828;48.922;9.116;2024-01-16T12:00:19;5.90;99.90
7574;DHT22;3828;48.922;9.116;2024-01-16T12:02:56;5.50;99.90
7574;DHT22;3828;48.922;9.116;2024-01-16T12:05:23;5.20;99.90
7574;DHT22;3828;48.922;9.116;2024-01-16T12:07:51;5.10;99.90
7574;DHT22;3828;48.922;9.116;2024-01-16T12:10:20;5.00;99.90
7574;DHT22;3828;48.922;9.116;2024-01-16T12:12:48;4.60;99.90
7574;DHT22;3828;48.922;9.116;2024-01-16T12:15:17;4.50;99.90
7574;DHT22;3828;48.922;9.116;2024-01-16T12:17:55;4.30;99.90
7574;DHT22;3828;48.922;9.116;2024-01-16T12:20:23;4.10;99.90
7574;DHT22;3828;48.922;9.116;2024-01-16T12:22:57;4.00;99.90
7574;DHT22;3828;48.922;9.116;2024-01-16T12:25:25;3.80;99.90
7574;DHT22;3828;48.922;9.116;2024-01-16T12:27:56;3.70;99.90
7574;DHT22;3828;48.922;9.116;2024-01-16T12:30:25;3.50;99.90
7574;DHT22;3828;48.922;9.116;2024-01-16T12:33:03;3.30;99.90
7574;DHT22;3828;48.922;9.116;2024-01-16T12:38:00;3.20;99.90
7574;DHT22;3828;48.922;9.116;2024-01-16T12:42:54;2.90;99.90
7574;DHT22;3828;48.922;9.116;2024-01-16T12:45:22;2.80;99.90
7574;DHT22;3828;48.922;9.116;2024-01-16T12:47:52;2.70;99.90
7574;DHT22;3828;48.922;9.116;2024-01-16T12:50:20;2.80;99.90
7574;DHT22;3828;48.922;9.116;2024-01-16T13:00:23;2.90;99.90
7574;DHT22;3828;48.922;9.116;2024-01-16T13:02:53;2.90;99.90
7574;DHT22;3828;48.922;9.116;2024-01-16T13:05:23;2.90;99.90
7574;DHT22;3828;48.922;9.116;2024-01-16T13:08:00;2.90;99.90
7574;DHT22;3828;48.922;9.116;2024-01-16T13:13:12;2.80;99.90
7574;DHT22;3828;48.922;9.116;2024-01-16T13:15:39;2.70;99.90
7574;DHT22;3828;48.922;9.116;2024-01-16T13:18:17;2.60;99.90
7574;DHT22;3828;48.922;9.116;2024-01-16T13:20:44;2.70;99.90
7574;DHT22;3828;48.922;9.116;2024-01-16T13:23:12;2.80;99.90
7574;DHT22;3828;48.922;9.116;2024-01-16T13:25:41;2.90;99.90
7574;DHT22;3828;48.922;9.116;2024-01-16T13:33:03;3.40;99.90
7574;DHT22;3828;48.922;9.116;2024-01-16T13:35:33;3.50;99.90
7574;DHT22;3828;48.922;9.116;2024-01-16T13:38:01;3.60;99.90
7574;DHT22;3828;48.922;9.116;2024-01-16T13:40:29;3.50;99.90
7574;DHT22;3828;48.922;9.116;2024-01-16T13:42:56;3.50;99.90
7574;DHT22;3828;48.922;9.116;2024-01-16T13:45:23;3.30;99.90
7574;DHT22;3828;48.922;9.116;2024-01-16T13:47:49;3.20;99.90
7574;DHT22;3828;48.922;9.116;2024-01-16T13:50:16;3.10;99.90
7574;DHT22;3828;48.922;9.116;2024-01-16T13:52:45;2.90;99.90
7574;DHT22;3828;48.922;9.116;2024-01-16T13:55:12;2.80;99.90
7574;DHT22;3828;48.922;9.116;2024-01-16T13:57:39;2.80;99.90
7574;DHT22;3828;48.922;9.116;2024-01-16T14:00:06;2.80;99.90
7574;DHT22;3828;48.922;9.116;2024-01-16T14:05:07;2.70;99.90
7574;DHT22;3828;48.922;9.116;2024-01-16T14:07:36;2.60;99.90
7574;DHT22;3828;48.922;9.116;2024-01-16T14:10:05;2.50;99.90
7574;DHT22;3828;48.922;9.116;2024-01-16T14:12:35;2.50;99.90
7574;DHT22;3828;48.922;9.116;2024-01-16T14:15:02;2.40;99.90
7574;DHT22;3828;48.922;9.116;2024-01-16T14:17:32;2.30;99.90
7574;DHT22;3828;48.922;9.116;2024-01-16T14:19:59;2.20;99.90
7574;DHT22;3828;48.922;9.116;2024-01-16T14:24:53;2.10;99.90
7574;DHT22;3828;48.922;9.116;2024-01-16T14:27:21;2.00;99.90
7574;DHT22;3828;48.922;9.116;2024-01-16T14:29:49;2.20;99.90
7574;DHT22;3828;48.922;9.116;2024-01-16T14:32:16;2.10;99.90
7574;DHT22;3828;48.922;9.116;2024-01-16T14:34:43;2.00;99.90
7574;DHT22;3828;48.922;9.116;2024-01-16T14:37:09;1.90;99.90
7574;DHT22;3828;48.922;9.116;2024-01-16T14:42:04;1.80;99.90
7574;DHT22;3828;48.922;9.116;2024-01-16T14:44:33;1.70;99.90
7574;DHT22;3828;48.922;9.116;2024-01-16T14:46:59;1.70;99.90
7574;DHT22;3828;48.922;9.116;2024-01-16T14:49:26;1.60;99.90
7574;DHT22;3828;48.922;9.116;2024-01-16T14:54:24;1.60;99.90
7574;DHT22;3828;48.922;9.116;2024-01-16T14:56:51;1.50;99.90
7574;DHT22;3828;48.922;9.116;2024-01-16T14:59:18;1.40;99.90
7574;DHT22;3828;48.922;9.116;2024-01-16T15:01:46;1.40;99.90
7574;DHT22;3828;48.922;9.116;2024-01-16T15:04:13;1.60;99.90
7574;DHT22;3828;48.922;9.116;2024-01-16T15:06:40;1.50;99.90
7574;DHT22;3828;48.922;9.116;2024-01-16T15:11:35;1.70;99.90
7574;DHT22;3828;48.922;9.116;2024-01-16T15:14:02;1.80;99.90
7574;DHT22;3828;48.922;9.116;2024-01-16T15:16:29;1.70;99.90
7574;DHT22;3828;48.922;9.116;2024-01-16T15:18:58;1.70;99.90
7574;DHT22;3828;48.922;9.116;2024-01-16T15:21:25;1.60;99.90
7574;DHT22;3828;48.922;9.116;2024-01-16T15:23:51;1.60;99.90
7574;DHT22;3828;48.922;9.116;2024-01-16T15:26:18;1.60;99.90
7574;DHT22;3828;48.922;9.116;2024-01-16T15:28:46;1.60;99.90
7574;DHT22;3828;48.922;9.116;2024-01-16T15:31:12;1.50;99.90
7574;DHT22;3828;48.922;9.116;2024-01-16T15:33:39;1.40;99.90
7574;DHT22;3828;48.922;9.116;2024-01-16T15:36:08;1.30;99.90
7574;DHT22;3828;48.922;9.116;2024-01-16T15:43:29;1.00;99.90
7574;DHT22;3828;48.922;9.116;2024-01-16T15:45:56;0.80;99.90
7574;DHT22;3828;48.922;9.116;2024-01-16T15:50:58;0.40;99.90
7574;DHT22;3828;48.922;9.116;2024-01-16T15:53:26;0.20;99.90
7574;DHT22;3828;48.922;9.116;2024-01-16T15:55:52;0.00;99.90
7574;DHT22;3828;48.922;9.116;2024-01-16T16:05:41;-0.50;99.90
7574;DHT22;3828;48.922;9.116;2024-01-16T16:08:08;-0.60;99.90
7574;DHT22;3828;48.922;9.116;2024-01-16T16:10:37;-0.70;99.90
7574;DHT22;3828;48.922;9.116;2024-01-16T16:13:06;-0.80;99.90
7574;DHT22;3828;48.922;9.116;2024-01-16T16:15:34;-0.90;99.90
7574;DHT22;3828;48.922;9.116;2024-01-16T16:18:01;-1.00;99.90
7574;DHT22;3828;48.922;9.116;2024-01-16T16:22:55;-1.20;99.90
7574;DHT22;3828;48.922;9.116;2024-01-16T16:25:22;-1.20;99.90
7574;DHT22;3828;48.922;9.116;2024-01-16T16:27:50;-1.20;99.90
7574;DHT22;3828;48.922;9.116;2024-01-16T16:30:17;-1.20;99.90
7574;DHT22;3828;48.922;9.116;2024-01-16T16:35:10;-1.30;99.90
7574;DHT22;3828;48.922;9.116;2024-01-16T16:37:36;-1.30;99.90
7574;DHT22;3828;48.922;9.116;2024-01-16T16:40:04;-1.40;99.90
7574;DHT22;3828;48.922;9.116;2024-01-16T16:42:31;-1.40;99.90
7574;DHT22;3828;48.922;9.116;2024-01-16T16:44:59;-1.50;99.90
7574;DHT22;3828;48.922;9.116;2024-01-16T16:47:26;-1.50;99.90
7574;DHT22;3828;48.922;9.116;2024-01-16T16:49:53;-1.60;99.90
7574;DHT22;3828;48.922;9.116;2024-01-16T16:54:47;-1.60;99.90
7574;DHT22;3828;48.922;9.116;2024-01-16T16:57:14;-1.70;99.90
7574;DHT22;3828;48.922;9.116;2024-01-16T16:59:40;-1.70;99.90
7574;DHT22;3828;48.922;9.116;2024-01-16T17:02:08;-1.60;99.90
7574;DHT22;3828;48.922;9.116;2024-01-16T17:07:03;-1.50;99.90
7574;DHT22;3828;48.922;9.116;2024-01-16T17:09:30;-1.60;99.90
7574;DHT22;3828;48.922;9.116;2024-01-16T17:19:19;-1.70;99.90
7574;DHT22;3828;48.922;9.116;2024-01-16T17:21:46;-1.70;99.90
7574;DHT22;3828;48.922;9.116;2024-01-16T17:24:13;-1.90;99.90
7574;DHT22;3828;48.922;9.116;2024-01-16T17:26:40;-1.90;99.90
7574;DHT22;3828;48.922;9.116;2024-01-16T17:29:10;-1.90;99.90
7574;DHT22;3828;48.922;9.116;2024-01-16T17:31:37;-2.00;99.90
7574;DHT22;3828;48.922;9.116;2024-01-16T17:36:32;-2.10;99.90
7574;DHT22;3828;48.922;9.116;2024-01-16T17:41:26;-2.00;99.90
7574;DHT22;3828;48.922;9.116;2024-01-16T17:46:21;-1.90;99.90
7574;DHT22;3828;48.922;9.116;2024-01-16T17:48:49;-1.90;99.90
7574;DHT22;3828;48.922;9.116;2024-01-16T17:53:45;-2.30;99.90
7574;DHT22;3828;48.922;9.116;2024-01-16T17:58:41;-2.30;99.90
7574;DHT22;3828;48.922;9.116;2024-01-16T18:03:37;-2.40;99.90
7574;DHT22;3828;48.922;9.116;2024-01-16T18:06:05;-2.60;99.90
7574;DHT22;3828;48.922;9.116;2024-01-16T18:08:33;-2.50;99.90
7574;DHT22;3828;48.922;9.116;2024-01-16T18:11:06;-2.60;99.90
7574;DHT22;3828;48.922;9.116;2024-01-16T18:13:37;-2.50;99.90
7574;DHT22;3828;48.922;9.116;2024-01-16T18:16:07;-2.60;99.90
7574;DHT22;3828;48.922;9.116;2024-01-16T18:18:34;-2.70;99.90
7574;DHT22;3828;48.922;9.116;2024-01-16T18:21:02;-2.80;99.90
7574;DHT22;3828;48.922;9.116;2024-01-16T18:26:00;-2.80;99.90
7574;DHT22;3828;48.922;9.116;2024-01-16T18:28:28;-2.90;99.90
7574;DHT22;3828;48.922;9.116;2024-01-16T18:30:55;-2.90;99.90
7574;DHT22;3828;48.922;9.116;2024-01-16T18:38:22;-3.00;99.90
7574;DHT22;3828;48.922;9.116;2024-01-16T18:40:49;-3.00;99.90
7574;DHT22;3828;48.922;9.116;2024-01-16T18:45:46;-3.00;99.90
7574;DHT22;3828;48.922;9.116;2024-01-16T18:48:13;-3.00;99.90
7574;DHT22;3828;48.922;9.116;2024-01-16T18:50:40;-3.00;99.90
7574;DHT22;3828;48.922;9.116;2024-01-16T19:00:33;-3.10;99.90
7574;DHT22;3828;48.922;9.116;2024-01-16T19:03:02;-3.10;99.90
7574;DHT22;3828;48.922;9.116;2024-01-16T19:05:29;-3.00;99.90
7574;DHT22;3828;48.922;9.116;2024-01-16T19:08:00;-3.10;99.90
7574;DHT22;3828;48.922;9.116;2024-01-16T19:10:26;-3.10;99.90
7574;DHT22;3828;48.922;9.116;2024-01-16T19:12:55;-3.10;99.90
7574;DHT22;3828;48.922;9.116;2024-01-16T19:15:22;-3.20;99.90
7574;DHT22;3828;48.922;9.116;2024-01-16T19:17:50;-3.20;99.90
7574;DHT22;3828;48.922;9.116;2024-01-16T19:20:19;-3.10;99.90
7574;DHT22;3828;48.922;9.116;2024-01-16T19:22:48;-3.10;99.90
7574;DHT22;3828;48.922;9.116;2024-01-16T19:25:15;-3.10;99.90
7574;DHT22;3828;48.922;9.116;2024-01-16T19:27:42;-3.10;99.90
7574;DHT22;3828;48.922;9.116;2024-01-16T19:30:13;-3.10;99.90
7574;DHT22;3828;48.922;9.116;2024-01-16T19:35:08;-3.00;99.90
7574;DHT22;3828;48.922;9.116;2024-01-16T19:37:36;-4.10;99.90
7574;DHT22;3828;48.922;9.116;2024-01-16T19:40:05;-3.10;99.90
7574;DHT22;3828;48.922;9.116;2024-01-16T19:42:33;-3.20;99.90
7574;DHT22;3828;48.922;9.116;2024-01-16T19:45:00;-3.30;99.90
7574;DHT22;3828;48.922;9.116;2024-01-16T19:47:27;-3.30;99.90
7574;DHT22;3828;48.922;9.116;2024-01-16T19:54:49;-3.50;99.90
7574;DHT22;3828;48.922;9.116;2024-01-16T20:02:10;-3.60;99.90
7574;DHT22;3828;48.922;9.116;2024-01-16T20:04:37;-3.60;99.90
7574;DHT22;3828;48.922;9.116;2024-01-16T20:07:04;-3.70;99.90
7574;DHT22;3828;48.922;9.116;2024-01-16T20:09:31;-3.70;99.90
7574;DHT22;3828;48.922;9.116;2024-01-16T20:12:00;-3.70;99.90
7574;DHT22;3828;48.922;9.116;2024-01-16T20:14:27;-3.70;99.90
7574;DHT22;3828;48.922;9.116;2024-01-16T20:21:48;-3.70;99.90
7574;DHT22;3828;48.922;9.116;2024-01-16T20:24:15;-3.80;99.90
7574;DHT22;3828;48.922;9.116;2024-01-16T20:26:42;-3.80;99.90
7574;DHT22;3828;48.922;9.116;2024-01-16T20:29:11;-3.90;99.90
7574;DHT22;3828;48.922;9.116;2024-01-16T20:31:39;-3.80;99.90
7574;DHT22;3828;48.922;9.116;2024-01-16T20:34:09;-3.80;99.90
7574;DHT22;3828;48.922;9.116;2024-01-16T20:36:37;-3.70;99.90
7574;DHT22;3828;48.922;9.116;2024-01-16T20:39:04;-3.70;99.90
7574;DHT22;3828;48.922;9.116;2024-01-16T20:43:58;-3.70;99.90